createdAt,value
2019-01-12T00:00:52.300Z,42.41
2019-01-12T00:03:24.054Z,42.41
2019-01-12T00:05:55.750Z,42.85
2019-01-12T00:08:27.365Z,42.77
2019-01-12T00:10:59.114Z,42.27
2019-01-12T00:13:31.308Z,42.80
2019-01-12T00:16:02.854Z,42.66
2019-01-12T00:18:34.369Z,42.63
2019-01-12T00:21:06.260Z,41.96
2019-01-12T00:23:37.823Z,42.81
2019-01-12T00:26:09.400Z,42.33
2019-01-12T00:28:41.067Z,42.21
2019-01-12T00:31:12.778Z,42.37
2019-01-12T00:33:44.340Z,42.31
2019-01-12T00:36:16.309Z,42.49
2019-01-12T00:38:47.821Z,42.46
2019-01-12T00:41:19.641Z,42.21
2019-01-12T00:43:51.443Z,42.37
2019-01-12T00:46:23.305Z,42.37
2019-01-12T00:48:55.121Z,42.66
2019-01-12T00:51:26.753Z,42.32
2019-01-12T00:53:57.449Z,42.38
2019-01-12T00:56:29.310Z,42.60
2019-01-12T00:59:00.879Z,42.52
2019-01-12T01:01:32.405Z,42.45
2019-01-12T01:04:04.073Z,42.25
2019-01-12T01:06:35.777Z,42.50
2019-01-12T01:09:10.742Z,42.05
2019-01-12T01:11:41.488Z,42.45
2019-01-12T01:14:13.618Z,42.02
2019-01-12T01:16:45.353Z,42.69
2019-01-12T01:19:17.368Z,42.69
2019-01-12T01:21:49.075Z,42.44
2019-01-12T01:24:20.735Z,42.32
2019-01-12T01:26:51.947Z,42.11
2019-01-12T01:29:23.756Z,42.58
2019-01-12T01:31:55.375Z,42.75
2019-01-12T01:34:27.066Z,42.58
2019-01-12T01:36:59.280Z,42.69
2019-01-12T01:39:30.899Z,42.68
2019-01-12T01:42:02.697Z,42.57
2019-01-12T01:44:33.707Z,42.61
2019-01-12T01:47:04.443Z,42.51
2019-01-12T01:49:36.318Z,42.30
2019-01-12T01:52:07.918Z,42.61
2019-01-12T01:54:39.729Z,42.55
2019-01-12T01:57:10.485Z,42.57
2019-01-12T01:59:42.353Z,42.29
2019-01-12T02:02:14.310Z,42.85
2019-01-12T02:04:46.358Z,42.65
2019-01-12T02:07:18.056Z,42.56
2019-01-12T02:09:49.777Z,42.50
2019-01-12T02:12:20.609Z,42.50
2019-01-12T02:14:52.374Z,42.65
2019-01-12T02:17:24.056Z,42.65
2019-01-12T02:19:55.795Z,42.37
2019-01-12T02:22:26.488Z,42.19
2019-01-12T02:25:00.020Z,42.62
2019-01-12T02:27:31.803Z,42.84
2019-01-12T02:30:02.679Z,42.50
2019-01-12T02:32:33.593Z,42.49
2019-01-12T02:35:05.737Z,42.71
2019-01-12T02:37:36.498Z,42.71
2019-01-12T02:40:08.752Z,42.75
2019-01-12T02:42:39.484Z,42.70
2019-01-12T02:45:12.307Z,42.41
2019-01-12T02:47:43.880Z,42.55
2019-01-12T02:50:15.734Z,42.30
2019-01-12T02:52:46.473Z,42.33
2019-01-12T02:55:18.301Z,42.70
2019-01-12T02:57:49.842Z,41.98
2019-01-12T03:00:21.753Z,42.14
2019-01-12T03:02:52.468Z,42.57
2019-01-12T03:05:24.301Z,42.52
2019-01-12T03:07:55.857Z,42.47
2019-01-12T03:10:27.337Z,42.57
2019-01-12T03:12:59.092Z,42.38
2019-01-12T03:15:30.748Z,42.04
2019-01-12T03:18:01.483Z,42.47
2019-01-12T03:20:33.285Z,42.17
2019-01-12T03:23:04.845Z,41.91
2019-01-12T03:25:36.587Z,41.88
2019-01-12T03:28:08.305Z,41.87
2019-01-12T03:30:40.322Z,41.87
2019-01-12T03:33:12.392Z,42.09
2019-01-12T03:35:44.068Z,42.06
2019-01-12T03:38:16.336Z,41.99
2019-01-12T03:40:48.065Z,42.44
2019-01-12T03:43:19.781Z,42.13
2019-01-12T03:45:50.637Z,42.04
2019-01-12T03:48:22.402Z,42.27
2019-01-12T03:50:54.071Z,42.27
2019-01-12T03:53:25.765Z,42.19
2019-01-12T03:55:56.469Z,42.01
2019-01-12T03:58:28.418Z,42.03
2019-01-12T04:01:00.149Z,41.89
2019-01-12T04:03:31.794Z,41.79
2019-01-12T04:06:02.465Z,42.24
2019-01-12T04:08:34.058Z,41.63
2019-01-12T04:11:05.763Z,42.00
2019-01-12T04:13:36.456Z,42.38
2019-01-12T04:16:08.026Z,42.08
2019-01-12T04:18:39.756Z,42.26
2019-01-12T04:21:11.394Z,41.84
2019-01-12T04:23:43.330Z,42.11
2019-01-12T04:26:15.060Z,42.10
2019-01-12T04:28:46.772Z,42.09
2019-01-12T04:31:17.492Z,42.16
2019-01-12T04:33:49.301Z,42.45
2019-01-12T04:36:20.831Z,42.28
2019-01-12T04:38:52.800Z,42.40
2019-01-12T04:41:24.786Z,42.36
2019-01-12T04:43:55.624Z,42.26
2019-01-12T04:46:26.714Z,42.46
2019-01-12T04:48:57.503Z,42.48
2019-01-12T04:51:29.313Z,42.38
2019-01-12T04:54:01.356Z,42.15
2019-01-12T04:56:33.086Z,42.26
2019-01-12T04:59:04.728Z,42.23
2019-01-12T05:01:35.459Z,42.45
2019-01-12T05:04:07.314Z,42.17
2019-01-12T05:06:38.812Z,42.22
2019-01-12T05:09:11.374Z,42.37
2019-01-12T05:11:43.067Z,42.60
2019-01-12T05:14:14.752Z,42.12
2019-01-12T05:16:45.478Z,42.70
2019-01-12T05:19:18.053Z,42.47
2019-01-12T05:21:49.774Z,42.46
2019-01-12T05:24:20.602Z,42.53
2019-01-12T05:26:52.745Z,42.43
2019-01-12T05:29:24.420Z,42.43
2019-01-12T05:31:56.310Z,42.36
2019-01-12T05:34:27.832Z,42.30
2019-01-12T05:36:59.662Z,42.17
2019-01-12T05:39:31.793Z,41.85
2019-01-12T05:42:03.396Z,41.85
2019-01-12T05:44:35.077Z,42.33
2019-01-12T05:47:06.762Z,42.07
2019-01-12T05:49:37.620Z,42.35
2019-01-12T05:52:09.311Z,42.22
2019-01-12T05:54:40.949Z,42.22
2019-01-12T05:57:12.752Z,42.14
2019-01-12T05:59:43.639Z,41.94
2019-01-12T06:02:14.723Z,41.10
2019-01-12T06:04:45.480Z,41.39
2019-01-12T06:07:17.315Z,39.50
2019-01-12T06:09:49.313Z,38.59
2019-01-12T06:12:21.279Z,38.15
2019-01-12T06:14:53.163Z,36.78
2019-01-12T06:17:24.867Z,36.68
2019-01-12T06:19:56.889Z,35.92
2019-01-12T06:22:28.776Z,35.61
2019-01-12T06:24:59.693Z,36.55
2019-01-12T06:27:30.623Z,35.32
2019-01-12T06:30:01.744Z,35.56
2019-01-12T06:32:32.725Z,35.65
2019-01-12T06:35:03.801Z,35.20
2019-01-12T06:37:35.779Z,35.32
2019-01-12T06:40:11.631Z,35.48
2019-01-12T06:42:43.391Z,34.81
2019-01-12T06:45:16.309Z,34.81
2019-01-12T06:47:47.821Z,35.48
2019-01-12T06:50:21.321Z,35.78
2019-01-12T06:52:52.855Z,36.39
2019-01-12T06:55:24.618Z,36.75
2019-01-12T06:57:56.371Z,36.99
2019-01-12T07:00:28.318Z,36.99
2019-01-12T07:02:59.866Z,37.55
2019-01-12T07:05:31.774Z,37.66
2019-01-12T07:08:02.500Z,36.93
2019-01-12T07:10:34.314Z,38.21
2019-01-12T07:13:05.894Z,38.07
2019-01-12T07:15:37.425Z,37.34
2019-01-12T07:18:09.110Z,38.23
2019-01-12T07:20:41.270Z,37.71
2019-01-12T07:23:13.317Z,37.03
2019-01-12T07:25:44.856Z,36.71
2019-01-12T07:28:16.782Z,37.42
2019-01-12T07:30:48.030Z,37.01
2019-01-12T07:33:20.305Z,38.25
2019-01-12T07:35:51.828Z,37.82
2019-01-12T07:38:23.660Z,39.33
2019-01-12T07:40:55.430Z,39.52
2019-01-12T07:43:27.314Z,39.52
2019-01-12T07:45:58.867Z,39.38
2019-01-12T07:48:30.620Z,38.83
2019-01-12T07:51:02.369Z,40.80
2019-01-12T07:53:34.022Z,40.80
2019-01-12T07:56:05.781Z,40.38
2019-01-12T07:58:36.458Z,40.01
2019-01-12T08:01:08.309Z,40.28
2019-01-12T08:03:40.052Z,40.29
2019-01-12T08:06:11.846Z,40.66
2019-01-12T08:08:43.592Z,40.44
2019-01-12T08:11:15.345Z,40.54
2019-01-12T08:13:46.841Z,40.54
2019-01-12T08:16:18.652Z,40.80
2019-01-12T08:18:50.611Z,40.89
2019-01-12T08:21:22.353Z,41.05
2019-01-12T08:23:54.582Z,41.05
2019-01-12T08:26:31.137Z,41.05
2019-01-12T08:29:00.315Z,41.05
2019-01-12T08:31:32.798Z,39.49
2019-01-12T08:34:04.429Z,39.71
2019-01-12T08:36:36.062Z,39.40
2019-01-12T08:39:09.787Z,39.19
2019-01-12T08:41:40.465Z,39.56
2019-01-12T08:44:12.433Z,39.22
2019-01-12T08:46:44.074Z,39.06
2019-01-12T08:49:16.009Z,38.54
2019-01-12T08:52:07.352Z,38.34
2019-01-12T08:54:40.305Z,38.34
2019-01-12T08:57:11.849Z,37.61
2019-01-12T08:59:43.592Z,39.38
2019-01-12T09:02:15.857Z,40.08
2019-01-12T09:04:47.651Z,40.08
2019-01-12T09:07:19.349Z,40.25
2019-01-12T09:09:51.035Z,40.25
2019-01-12T09:12:22.834Z,40.18
2019-01-12T09:14:55.317Z,40.50
2019-01-12T09:17:26.816Z,40.49
2019-01-12T09:19:58.568Z,40.34
2019-01-12T09:22:30.318Z,40.52
2019-01-12T09:25:01.829Z,40.52
2019-01-12T09:27:33.749Z,40.50
2019-01-12T09:30:05.385Z,40.85
2019-01-12T09:32:37.429Z,40.70
2019-01-12T09:35:09.385Z,40.95
2019-01-12T09:37:41.066Z,40.93
2019-01-12T09:40:16.796Z,40.76
2019-01-12T09:42:48.740Z,40.94
2019-01-12T09:45:21.301Z,41.02
2019-01-12T09:47:53.419Z,40.71
2019-01-12T09:50:25.311Z,41.29
2019-01-12T09:52:57.305Z,41.13
2019-01-12T09:55:28.863Z,41.13
2019-01-12T09:58:00.617Z,41.04
2019-01-12T10:00:33.301Z,41.22
2019-01-12T10:03:04.855Z,41.22
2019-01-12T10:05:36.837Z,41.07
2019-01-12T10:08:08.556Z,40.85
2019-01-12T10:10:40.311Z,41.22
2019-01-12T10:13:11.852Z,41.33
2019-01-12T10:15:43.585Z,41.08
2019-01-12T10:18:15.624Z,41.22
2019-01-12T10:20:47.403Z,41.31
2019-01-12T10:23:19.066Z,41.31
2019-01-12T10:25:50.775Z,41.46
2019-01-12T10:28:22.417Z,41.32
2019-01-12T10:30:54.613Z,41.38
2019-01-12T10:33:26.378Z,41.23
2019-01-12T10:35:58.069Z,41.23
2019-01-12T10:38:29.785Z,41.09
2019-01-12T10:41:01.376Z,41.12
2019-01-12T10:43:33.065Z,41.09
2019-01-12T10:46:04.744Z,41.18
2019-01-12T10:48:35.449Z,41.39
2019-01-12T10:51:07.781Z,41.27
2019-01-12T10:53:38.600Z,41.33
2019-01-12T10:56:10.585Z,41.12
2019-01-12T10:58:42.749Z,41.12
2019-01-12T11:01:13.452Z,41.12
2019-01-12T11:03:45.071Z,41.09
2019-01-12T11:06:17.352Z,40.62
2019-01-12T11:08:49.706Z,41.07
2019-01-12T11:11:20.482Z,41.19
2019-01-12T11:13:52.327Z,41.04
2019-01-12T11:16:24.660Z,41.35
2019-01-12T11:18:56.375Z,41.39
2019-01-12T11:21:28.310Z,41.39
2019-01-12T11:24:00.305Z,41.09
2019-01-12T11:26:31.822Z,40.96
2019-01-12T11:29:03.414Z,40.91
2019-01-12T11:31:35.309Z,40.49
2019-01-12T11:34:07.293Z,40.15
2019-01-12T11:36:38.894Z,39.62
2019-01-12T11:39:10.773Z,39.35
2019-01-12T11:41:41.485Z,39.72
2019-01-12T11:44:13.728Z,39.96
2019-01-12T11:46:44.468Z,40.88
2019-01-12T11:49:16.294Z,41.15
2019-01-12T11:51:48.757Z,41.57
2019-01-12T11:54:19.618Z,41.45
2019-01-12T11:56:51.384Z,41.29
2019-01-12T11:59:22.833Z,41.29
2019-01-12T12:01:54.565Z,41.10
2019-01-12T12:04:26.438Z,41.08
2019-01-12T12:06:58.296Z,41.08
2019-01-12T12:09:29.841Z,41.04
2019-01-12T12:12:01.626Z,41.47
2019-01-12T12:14:33.336Z,41.11
2019-01-12T12:17:05.369Z,41.11
2019-01-12T12:19:37.061Z,41.22
2019-01-12T12:22:08.774Z,41.23
2019-01-12T12:24:39.740Z,41.24
2019-01-12T12:27:10.763Z,41.17
2019-01-12T12:29:42.413Z,41.11
2019-01-12T12:32:14.337Z,41.12
2019-01-12T12:34:46.398Z,41.04
2019-01-12T12:37:18.046Z,41.22
2019-01-12T12:39:50.285Z,41.26
2019-01-12T12:42:21.858Z,41.13
2019-01-12T12:44:53.373Z,40.97
2019-01-12T12:47:25.006Z,40.80
2019-01-12T12:49:56.772Z,41.04
2019-01-12T12:52:28.490Z,41.03
2019-01-12T12:55:00.280Z,41.11
2019-01-12T12:57:33.041Z,41.00
2019-01-12T13:00:05.765Z,40.97
2019-01-12T13:02:36.464Z,40.96
2019-01-12T13:06:21.065Z,38.84
2019-01-12T13:08:52.744Z,39.05
2019-01-12T13:11:23.454Z,38.78
2019-01-12T13:13:55.377Z,38.67
2019-01-12T13:16:27.301Z,38.68
2019-01-12T13:18:59.309Z,38.38
2019-01-12T13:21:30.864Z,38.39
2019-01-12T13:24:02.790Z,38.88
2019-01-12T13:26:34.378Z,38.63
2019-01-12T13:29:06.058Z,39.02
2019-01-12T13:31:37.740Z,38.72
2019-01-12T13:34:08.487Z,38.10
2019-01-12T13:36:40.307Z,38.28
2019-01-12T13:39:11.873Z,37.94
2019-01-12T13:41:43.660Z,37.49
2019-01-12T13:44:15.361Z,37.31
2019-01-12T13:46:47.263Z,37.31
2019-01-12T13:49:18.828Z,37.31
2019-01-12T13:51:50.743Z,37.21
2019-01-12T13:54:21.485Z,37.50
2019-01-12T13:56:53.319Z,37.54
2019-01-12T13:59:24.882Z,37.30
2019-01-12T14:01:56.737Z,37.16
2019-01-12T14:04:27.460Z,37.37
2019-01-12T14:07:00.824Z,37.94
2019-01-12T14:09:32.453Z,37.87
2019-01-12T14:12:04.297Z,38.09
2019-01-12T14:14:36.034Z,38.04
2019-01-12T14:17:07.741Z,38.10
2019-01-12T14:19:38.656Z,38.14
2019-01-12T14:22:10.458Z,38.39
2019-01-12T14:24:42.062Z,38.39
2019-01-12T14:27:14.303Z,38.49
2019-01-12T14:29:45.997Z,38.57
2019-01-12T14:32:17.808Z,38.85
2019-01-12T14:34:49.773Z,38.80
2019-01-12T14:37:20.538Z,38.69
2019-01-12T14:39:52.770Z,38.50
2019-01-12T14:42:23.451Z,38.50
2019-01-12T14:44:55.066Z,38.62
2019-01-12T14:47:26.745Z,38.76
2019-01-12T14:49:57.777Z,38.68
2019-01-12T14:52:29.770Z,38.83
2019-01-12T14:55:01.685Z,38.62
2019-01-12T14:57:33.382Z,39.47
2019-01-12T15:00:06.832Z,39.47
2019-01-12T15:02:38.745Z,39.51
2019-01-12T15:05:12.110Z,39.87
2019-01-12T15:07:43.837Z,39.97
2019-01-12T15:10:18.677Z,39.96
2019-01-12T15:12:50.769Z,40.28
2019-01-12T15:15:21.544Z,40.28
2019-01-12T15:17:53.310Z,40.29
2019-01-12T15:20:28.788Z,40.29
2019-01-12T15:23:00.749Z,40.50
2019-01-12T15:25:31.650Z,40.61
2019-01-12T15:28:08.952Z,40.39
2019-01-12T15:30:36.753Z,40.39
2019-01-12T15:33:11.716Z,39.55
2019-01-12T15:35:45.267Z,38.80
2019-01-12T15:38:16.894Z,38.22
2019-01-12T15:40:48.749Z,37.82
2019-01-12T15:43:19.440Z,37.59
2019-01-12T15:45:51.410Z,37.58
2019-01-12T15:48:23.070Z,36.84
2019-01-12T15:50:54.782Z,37.23
2019-01-12T15:53:26.778Z,37.37
2019-01-12T15:55:57.480Z,37.86
2019-01-12T15:58:29.401Z,38.07
2019-01-12T16:01:01.056Z,37.99
2019-01-12T16:03:32.716Z,37.89
2019-01-12T16:06:03.484Z,37.98
2019-01-12T16:08:35.296Z,38.50
2019-01-12T16:11:06.845Z,37.72
2019-01-12T16:13:38.391Z,38.85
2019-01-12T16:16:10.069Z,38.65
2019-01-12T16:18:41.842Z,38.65
2019-01-12T16:21:13.418Z,38.63
2019-01-12T16:23:45.392Z,38.83
2019-01-12T16:26:17.057Z,38.45
2019-01-12T16:28:48.711Z,39.20
2019-01-12T16:31:19.928Z,39.32
2019-01-12T16:33:51.753Z,39.29
2019-01-12T16:36:23.078Z,39.40
2019-01-12T16:38:54.782Z,39.29
2019-01-12T16:41:26.469Z,39.44
2019-01-12T16:43:58.054Z,39.79
2019-01-12T16:46:29.701Z,39.25
2019-01-12T16:49:00.450Z,39.45
2019-01-12T16:51:32.328Z,39.63
2019-01-12T16:54:04.306Z,39.63
2019-01-12T16:56:35.859Z,39.92
2019-01-12T16:59:07.613Z,40.04
2019-01-12T17:01:39.326Z,39.67
2019-01-12T17:04:11.072Z,39.67
2019-01-12T17:06:42.790Z,39.01
2019-01-12T17:09:13.497Z,38.64
2019-01-12T17:11:45.505Z,38.27
2019-01-12T17:14:17.410Z,37.85
2019-01-12T17:16:49.070Z,37.82
2019-01-12T17:19:20.783Z,37.19
2019-01-12T17:21:51.498Z,38.08
2019-01-12T17:24:23.296Z,37.56
2019-01-12T17:26:54.857Z,37.67
2019-01-12T17:29:26.393Z,37.67
2019-01-12T17:31:58.066Z,38.17
2019-01-12T17:34:30.269Z,37.96
2019-01-12T17:37:02.061Z,38.10
2019-01-12T17:39:33.781Z,37.93
2019-01-12T17:42:05.646Z,37.95
2019-01-12T17:44:37.682Z,37.63
2019-01-12T17:47:09.389Z,36.89
2019-01-12T17:49:41.037Z,36.89
2019-01-12T17:52:12.769Z,38.62
2019-01-12T17:54:43.482Z,38.03
2019-01-12T17:57:15.323Z,39.01
2019-01-12T17:59:48.318Z,38.82
2019-01-12T18:02:19.887Z,39.07
2019-01-12T18:04:51.634Z,39.15
2019-01-12T18:07:23.393Z,39.60
2019-01-12T18:09:55.315Z,39.60
2019-01-12T18:12:26.873Z,39.65
2019-01-12T18:14:58.826Z,39.54
2019-01-12T18:17:30.745Z,39.77
2019-01-12T18:20:02.744Z,39.90
2019-01-12T18:22:33.504Z,39.94
2019-01-12T18:25:05.752Z,39.94
2019-01-12T18:27:36.498Z,39.77
2019-01-12T18:30:14.761Z,39.80
2019-01-12T18:32:46.434Z,39.80
2019-01-12T18:35:18.310Z,39.19
2019-01-12T18:37:49.867Z,38.49
2019-01-12T18:40:21.629Z,37.63
2019-01-12T18:42:53.433Z,37.33
2019-01-12T18:45:25.057Z,37.33
2019-01-12T18:47:56.887Z,37.54
2019-01-12T18:50:29.724Z,37.00
2019-01-12T18:53:00.438Z,37.07
2019-01-12T18:55:32.306Z,37.65
2019-01-12T18:58:03.874Z,37.53
2019-01-12T19:00:35.630Z,37.30
2019-01-12T19:03:07.364Z,37.68
2019-01-12T19:05:39.284Z,37.68
2019-01-12T19:08:10.883Z,36.65
2019-01-12T19:10:42.765Z,37.93
2019-01-12T19:13:13.458Z,37.68
2019-01-12T19:15:45.296Z,38.24
2019-01-12T19:18:16.765Z,38.34
2019-01-12T19:20:48.614Z,37.77
2019-01-12T19:23:20.362Z,38.56
2019-01-12T19:25:52.349Z,38.56
2019-01-12T19:28:24.977Z,37.75
2019-01-12T19:30:57.778Z,38.93
2019-01-12T19:33:28.487Z,39.41
2019-01-12T19:36:00.314Z,39.11
2019-01-12T19:38:31.832Z,39.67
2019-01-12T19:41:03.422Z,39.82
2019-01-12T19:43:35.577Z,39.70
2019-01-12T19:46:07.301Z,39.42
2019-01-12T19:48:38.850Z,39.42
2019-01-12T19:51:10.335Z,39.87
2019-01-12T19:53:42.297Z,40.07
2019-01-12T19:56:14.302Z,40.17
2019-01-12T19:58:45.828Z,40.57
2019-01-12T20:01:17.610Z,40.50
2019-01-12T20:03:49.354Z,40.17
2019-01-12T20:06:20.980Z,40.17
2019-01-12T20:08:52.723Z,40.35
2019-01-12T20:11:23.486Z,40.49
2019-01-12T20:13:55.296Z,40.46
2019-01-12T20:16:26.824Z,40.61
2019-01-12T20:18:58.393Z,40.67
2019-01-12T20:21:30.306Z,40.70
2019-01-12T20:24:05.296Z,40.79
2019-01-12T20:26:36.825Z,40.85
2019-01-12T20:29:08.815Z,40.85
2019-01-12T20:33:22.816Z,40.62
2019-01-12T20:37:08.010Z,41.02
2019-01-12T20:40:56.980Z,40.95
2019-01-12T20:44:14.846Z,41.05
2019-01-12T20:48:15.482Z,41.31
2019-01-12T20:51:47.273Z,41.37
2019-01-12T20:55:21.715Z,41.14
2019-01-12T20:58:35.484Z,41.30
2019-01-12T21:02:22.054Z,41.39
2019-01-12T21:05:47.299Z,41.25
2019-01-12T21:09:16.375Z,41.51
2019-01-12T21:12:51.757Z,41.66
2019-01-12T21:15:50.695Z,41.57
2019-01-12T21:18:21.595Z,41.70
2019-01-12T21:20:53.884Z,41.63
2019-01-12T21:23:25.858Z,41.63
2019-01-12T21:25:57.369Z,41.59
2019-01-12T21:28:29.034Z,41.70
2019-01-12T21:31:00.736Z,41.59
2019-01-12T21:33:31.500Z,41.62
2019-01-12T21:36:03.456Z,41.58
2019-01-12T21:38:36.302Z,41.66
2019-01-12T21:41:08.259Z,41.69
2019-01-12T21:43:39.814Z,41.51
2019-01-12T21:46:11.549Z,41.72
2019-01-12T21:48:43.341Z,41.45
2019-01-12T21:51:15.022Z,41.45
2019-01-12T21:53:46.777Z,41.76
2019-01-12T21:56:18.364Z,41.89
2019-01-12T21:58:50.570Z,41.73
2019-01-12T22:01:22.298Z,41.88
2019-01-12T22:03:54.309Z,41.88
2019-01-12T22:06:25.849Z,41.92
2019-01-12T22:08:57.528Z,41.88
2019-01-12T22:11:29.294Z,41.45
2019-01-12T22:14:01.363Z,41.45
2019-01-12T22:16:33.329Z,41.82
2019-01-12T22:19:05.050Z,41.70
2019-01-12T22:21:36.771Z,41.56
2019-01-12T22:24:07.748Z,41.73
2019-01-12T22:26:38.489Z,41.69
2019-01-12T22:29:10.300Z,41.89
2019-01-12T22:31:41.825Z,41.89
2019-01-12T22:34:13.773Z,41.79
2019-01-12T22:36:45.319Z,41.82
2019-01-12T22:39:17.062Z,41.82
2019-01-12T22:43:22.768Z,41.79
2019-01-12T22:45:53.767Z,41.79
2019-01-12T22:48:25.584Z,41.78
2019-01-12T22:50:57.405Z,41.88
2019-01-12T22:53:29.401Z,41.88
2019-01-12T22:56:01.300Z,41.80
2019-01-12T22:58:33.295Z,41.75
2019-01-12T23:01:51.787Z,41.92
2019-01-12T23:04:26.848Z,41.96
2019-01-12T23:06:58.738Z,41.85
2019-01-12T23:09:30.364Z,42.07
2019-01-12T23:12:02.297Z,41.81
2019-01-12T23:14:34.052Z,42.03
2019-01-12T23:17:05.740Z,42.08
2019-01-12T23:19:36.487Z,41.95
2019-01-12T23:22:08.335Z,41.98
2019-01-12T23:24:40.308Z,41.91
2019-01-12T23:27:12.304Z,41.81
2019-01-12T23:29:44.003Z,41.94
2019-01-12T23:32:15.770Z,41.93
2019-01-12T23:34:46.456Z,41.85
2019-01-12T23:37:18.255Z,42.08
2019-01-12T23:42:30.833Z,42.01
2019-01-12T23:45:02.601Z,42.07
2019-01-12T23:47:34.736Z,42.05
2019-01-12T23:50:06.766Z,42.05
2019-01-12T23:52:37.476Z,41.95
2019-01-12T23:55:09.302Z,41.88
2019-01-12T23:57:41.053Z,41.90
